Time;durP1;ratioP1;P1;durP2;ratioP2;P2;SDS_P1;SDS_P2;PMS_P1;PMS_P2;Temp;Humidity;BMP_temperature;BMP_pressure;BME280_temperature;BME280_humidity;BME280_pressure;Samples;Min_cycle;Max_cycle;Signal;HPM_P1;HPM_P2
2023/04/04 00:01:28;;;;;;;4.22;3.28;;;;;;;3.33;39.50;99792.50;5088646;28;20048;-69
2023/04/04 00:03:54;;;;;;;4.45;3.28;;;;;;;3.30;39.52;99789.94;5088589;28;20041;-68
2023/04/04 00:06:21;;;;;;;5.20;3.75;;;;;;;2.42;39.54;99650.16;5088905;28;20051;-71
2023/04/04 00:08:49;;;;;;;4.38;3.25;;;;;;;3.26;39.45;99790.88;5087449;28;20119;-68
2023/04/04 00:11:16;;;;;;;4.82;3.20;;;;;;;3.24;39.61;99776.94;5088301;28;20063;-68
2023/04/04 00:13:44;;;;;;;4.68;3.33;;;;;;;3.25;39.57;99788.28;5087346;28;20055;-68
2023/04/04 00:16:10;;;;;;;6.20;4.55;;;;;;;3.20;39.46;99794.47;5087299;28;20037;-68
2023/04/04 00:18:38;;;;;;;5.25;3.15;;;;;;;3.15;39.42;99806.78;5087057;28;20040;-68
2023/04/04 00:21:04;;;;;;;4.45;3.63;;;;;;;3.16;39.34;99786.69;5087203;28;20040;-69
2023/04/04 00:23:31;;;;;;;4.45;3.03;;;;;;;3.13;39.39;99777.13;5087105;28;20099;-69
2023/04/04 00:26:00;;;;;;;4.97;3.10;;;;;;;3.10;39.54;99781.56;5087074;28;20040;-69
2023/04/04 00:28:27;;;;;;;4.75;3.33;;;;;;;2.87;39.44;99747.94;5088411;28;20107;-69
2023/04/04 00:30:54;;;;;;;6.43;3.28;;;;;;;3.08;39.31;99788.59;5087916;28;20082;-69
2023/04/04 00:33:21;;;;;;;4.35;2.90;;;;;;;3.06;39.37;99786.00;5087304;28;20107;-69
2023/04/04 00:35:49;;;;;;;5.30;3.15;;;;;;;3.05;39.48;99789.50;5088205;28;20106;-69
2023/04/04 00:38:15;;;;;;;5.38;3.63;;;;;;;3.06;39.53;99787.75;5088117;28;20045;-69
2023/04/04 00:40:46;;;;;;;4.93;3.20;;;;;;;2.83;39.40;99754.13;5087332;28;20040;-69
2023/04/04 00:43:15;;;;;;;5.30;3.15;;;;;;;3.02;39.52;99786.09;5086766;28;20048;-69
2023/04/04 00:45:43;;;;;;;5.45;3.22;;;;;;;3.00;39.70;99777.38;5087853;28;20037;-69
2023/04/04 00:48:10;;;;;;;4.60;3.20;;;;;;;2.99;39.75;99786.13;5086722;28;20296;-69
2023/04/04 00:50:37;;;;;;;5.03;3.58;;;;;;;2.95;39.87;99785.31;5087482;28;20112;-69
2023/04/04 00:53:04;;;;;;;4.78;3.40;;;;;;;2.90;39.87;99792.41;5087478;28;20200;-69
2023/04/04 00:55:31;;;;;;;5.32;3.38;;;;;;;2.88;39.95;99796.78;5087353;28;20215;-69
2023/04/04 00:57:58;;;;;;;4.30;3.17;;;;;;;2.91;40.02;99793.25;5087770;28;20058;-69
2023/04/04 01:00:27;;;;;;;4.93;3.33;;;;;;;2.87;40.07;99789.84;5086508;28;20325;-69
2023/04/04 01:02:54;;;;;;;6.97;3.90;;;;;;;2.85;40.07;99787.25;5086408;28;20119;-69
2023/04/04 01:05:20;;;;;;;5.55;3.42;;;;;;;2.85;40.18;99781.13;5086382;28;20046;-68
2023/04/04 01:07:47;;;;;;;4.18;3.30;;;;;;;2.84;40.58;99782.03;5087429;28;20250;-68
2023/04/04 01:10:15;;;;;;;4.63;3.35;;;;;;;2.65;40.32;99747.44;5086296;28;20037;-68
2023/04/04 01:12:42;;;;;;;3.88;2.97;;;;;;;2.60;40.37;99749.28;5086313;28;20044;-68
2023/04/04 01:15:09;;;;;;;4.60;3.28;;;;;;;2.81;40.32;99796.03;5087285;28;20044;-69
2023/04/04 01:17:38;;;;;;;6.35;3.55;;;;;;;2.80;40.43;99799.53;5086969;28;20060;-69
2023/04/04 01:20:07;;;;;;;7.32;3.60;;;;;;;2.81;40.38;99792.56;5085981;28;20296;-69
2023/04/04 01:22:36;;;;;;;4.28;2.95;;;;;;;2.80;40.22;99788.22;5086887;28;20036;-69
2023/04/04 01:25:05;;;;;;;5.93;4.18;;;;;;;2.79;40.28;99789.97;5087038;28;20040;-69
2023/04/04 01:27:34;;;;;;;6.15;3.75;;;;;;;2.79;40.30;99789.09;5087186;28;20102;-69
2023/04/04 01:30:01;;;;;;;4.10;3.30;;;;;;;2.76;40.18;99791.75;5087201;28;20039;-69
2023/04/04 01:32:36;;;;;;;4.80;3.28;;;;;;;2.71;40.07;99788.34;5086977;28;20043;-69
2023/04/04 01:35:15;;;;;;;4.70;3.25;;;;;;;2.69;40.09;99790.13;5086095;28;20207;-69
2023/04/04 01:37:54;;;;;;;6.10;3.20;;;;;;;2.67;40.27;99790.16;5086947;28;20041;-68
2023/04/04 01:40:25;;;;;;;4.25;3.47;;;;;;;2.65;40.16;99794.56;5086692;28;20066;-69
2023/04/04 01:42:55;;;;;;;5.40;3.70;;;;;;;2.66;40.22;99791.06;5086351;28;20052;-70
2023/04/04 01:45:23;;;;;;;5.20;3.50;;;;;;;2.63;40.37;99791.09;5086261;28;20040;-69
2023/04/04 01:47:49;;;;;;;4.10;3.30;;;;;;;2.66;40.29;99798.91;5086179;28;20048;-68
2023/04/04 01:50:16;;;;;;;6.00;3.40;;;;;;;2.68;40.32;99797.13;5085212;28;20040;-69
2023/04/04 01:52:45;;;;;;;5.07;3.63;;;;;;;2.68;40.31;99797.13;5086316;28;20048;-69
2023/04/04 01:55:13;;;;;;;4.38;3.17;;;;;;;2.68;40.15;99794.50;5085975;28;20047;-69
2023/04/04 01:57:40;;;;;;;4.75;3.60;;;;;;;2.49;40.17;99753.81;5086231;28;20041;-69
2023/04/04 02:00:11;;;;;;;4.47;3.28;;;;;;;2.70;40.38;99791.88;5085445;28;20195;-69
2023/04/04 02:02:38;;;;;;;5.57;3.10;;;;;;;2.72;40.25;99790.09;5086461;28;20048;-69
2023/04/04 02:05:05;;;;;;;4.75;3.38;;;;;;;2.71;40.24;99786.59;5085805;28;20094;-69
2023/04/04 02:07:32;;;;;;;5.88;3.40;;;;;;;2.73;40.26;99784.81;5085457;28;20310;-69
2023/04/04 02:10:00;;;;;;;5.32;3.10;;;;;;;2.73;40.37;99790.06;5085402;28;20264;-69
2023/04/04 02:12:27;;;;;;;4.30;2.90;;;;;;;2.72;40.20;99783.09;5084835;28;20086;-69
2023/04/04 02:14:53;;;;;;;4.40;3.08;;;;;;;2.71;40.22;99788.34;5085158;28;20051;-69
2023/04/04 02:17:22;;;;;;;6.32;3.05;;;;;;;2.68;40.37;99781.41;5084846;28;20040;-69
2023/04/04 02:19:49;;;;;;;5.10;2.65;;;;;;;2.67;40.46;99774.47;5085751;28;20040;-69
2023/04/04 02:22:16;;;;;;;6.28;3.85;;;;;;;2.64;40.37;99774.50;5085628;28;20051;-69
2023/04/04 02:24:43;;;;;;;5.70;3.63;;;;;;;2.64;40.30;99771.03;5084738;28;20056;-68
2023/04/04 02:27:10;;;;;;;5.22;3.00;;;;;;;2.64;40.23;99777.13;5084672;28;20037;-69
2023/04/04 02:29:36;;;;;;;5.93;3.20;;;;;;;2.64;40.54;99774.50;5084566;28;20032;-69
2023/04/04 02:32:03;;;;;;;5.18;3.30;;;;;;;2.63;40.53;99777.16;5084456;28;20040;-69
2023/04/04 02:34:32;;;;;;;4.70;3.97;;;;;;;2.60;40.47;99772.84;5085367;28;20249;-69
2023/04/04 02:36:59;;;;;;;6.10;3.70;;;;;;;2.37;40.60;99733.09;5084357;28;20292;-69
2023/04/04 02:39:25;;;;;;;4.60;2.92;;;;;;;2.38;40.58;99734.81;5085780;28;20056;-69
2023/04/04 02:41:52;;;;;;;10.02;3.83;;;;;;;2.54;40.76;99773.78;5085109;28;20075;-69
2023/04/04 02:44:19;;;;;;;4.70;3.40;;;;;;;2.52;40.73;99770.34;5084363;28;20055;-69
2023/04/04 02:46:47;;;;;;;5.15;3.45;;;;;;;2.51;40.66;99773.84;5084339;28;20044;-69
2023/04/04 02:49:14;;;;;;;4.78;3.78;;;;;;;2.49;40.85;99780.00;5084322;28;20040;-69
2023/04/04 02:51:42;;;;;;;4.47;3.20;;;;;;;2.47;40.87;99780.00;5085202;28;20304;-69
2023/04/04 02:54:09;;;;;;;4.68;3.30;;;;;;;2.44;41.01;99773.97;5084297;28;20040;-69
2023/04/04 02:56:37;;;;;;;4.85;3.17;;;;;;;2.45;40.74;99780.94;5083751;28;20094;-69
2023/04/04 02:59:03;;;;;;;5.28;3.22;;;;;;;2.45;41.08;99778.31;5084286;28;20044;-69
2023/04/04 03:01:31;;;;;;;4.50;3.13;;;;;;;2.46;41.06;99775.66;5085426;28;20051;-69
2023/04/04 03:03:57;;;;;;;5.15;3.83;;;;;;;2.45;41.08;99770.47;5085251;28;20045;-69
2023/04/04 03:06:24;;;;;;;5.57;3.30;;;;;;;2.44;40.97;99779.19;5085070;28;20048;-68
2023/04/04 03:08:53;;;;;;;4.43;3.15;;;;;;;2.43;41.09;99767.00;5085608;28;20037;-69
2023/04/04 03:11:20;;;;;;;5.72;3.83;;;;;;;1.92;41.05;99700.66;5085071;28;20045;-68
2023/04/04 03:13:49;;;;;;;6.32;3.60;;;;;;;2.39;41.28;99766.19;5085616;28;20067;-68
2023/04/04 03:16:18;;;;;;;4.60;3.75;;;;;;;2.37;41.24;99756.63;5085580;28;20036;-69
2023/04/04 03:18:45;;;;;;;5.97;4.05;;;;;;;2.35;41.29;99750.56;5085370;28;20036;-69
2023/04/04 03:21:12;;;;;;;4.53;3.45;;;;;;;2.31;41.33;99754.13;5084823;28;20041;-69
2023/04/04 03:23:39;;;;;;;4.55;3.13;;;;;;;2.07;41.69;99711.75;5085057;28;20299;-68
2023/04/04 03:26:08;;;;;;;6.28;3.60;;;;;;;2.25;41.50;99736.75;5085405;28;20045;-69
2023/04/04 03:28:35;;;;;;;6.30;3.72;;;;;;;2.23;41.80;99744.63;5085416;28;20048;-68
2023/04/04 03:31:04;;;;;;;5.82;4.13;;;;;;;2.22;41.86;99739.44;5083971;28;20201;-69
2023/04/04 03:33:31;;;;;;;5.03;3.65;;;;;;;2.19;41.80;99740.34;5085260;28;20085;-68
2023/04/04 03:35:58;;;;;;;4.07;3.10;;;;;;;2.16;41.82;99726.44;5085384;28;20053;-68
2023/04/04 03:38:26;;;;;;;4.85;3.58;;;;;;;1.57;41.90;99647.13;5083774;28;20050;-68
2023/04/04 03:41:02;;;;;;;4.95;3.67;;;;;;;2.07;41.90;99732.69;5084690;28;20071;-69
2023/04/04 03:43:31;;;;;;;4.43;3.25;;;;;;;2.06;41.82;99728.34;5084797;28;20165;-68
2023/04/04 03:46:00;;;;;;;4.90;3.60;;;;;;;2.04;41.82;99729.25;5083799;28;20055;-68
2023/04/04 03:48:27;;;;;;;5.78;3.75;;;;;;;2.02;41.98;99728.41;5084930;28;20105;-69
2023/04/04 03:50:54;;;;;;;4.53;3.45;;;;;;;2.00;41.87;99728.44;5084814;28;20112;-69
2023/04/04 03:53:21;;;;;;;4.88;3.40;;;;;;;2.00;42.00;99719.72;5084849;28;20107;-68
2023/04/04 03:55:47;;;;;;;5.18;4.25;;;;;;;1.97;41.97;99727.59;5084853;28;20052;-68
2023/04/04 03:58:14;;;;;;;5.05;3.58;;;;;;;1.92;41.94;99727.69;5084773;28;20048;-69
2023/04/04 04:00:43;;;;;;;5.40;3.90;;;;;;;1.93;42.14;99734.63;5084360;28;20073;-69
2023/04/04 04:03:09;;;;;;;5.63;3.28;;;;;;;1.92;42.05;99732.91;5084175;28;20040;-68
2023/04/04 04:05:36;;;;;;;4.55;3.80;;;;;;;1.90;41.82;99719.00;5085071;28;20044;-68
2023/04/04 04:08:03;;;;;;;5.03;3.47;;;;;;;1.68;41.86;99686.22;5086129;28;20060;-69
2023/04/04 04:10:30;;;;;;;4.80;3.10;;;;;;;1.85;42.07;99716.44;5087220;28;20281;-68
2023/04/04 04:12:56;;;;;;;5.80;3.33;;;;;;;1.85;41.88;99721.66;5088005;28;20213;-68
2023/04/04 04:15:23;;;;;;;4.72;3.60;;;;;;;1.85;42.05;99718.19;5088254;28;20075;-68
2023/04/04 04:17:51;;;;;;;4.55;3.20;;;;;;;1.84;42.01;99724.31;5088098;28;20102;-68
2023/04/04 04:20:18;;;;;;;5.05;3.60;;;;;;;1.80;42.16;99722.63;5086948;28;20068;-68
2023/04/04 04:22:45;;;;;;;5.63;3.72;;;;;;;1.80;42.27;99720.00;5087855;28;20048;-68
2023/04/04 04:25:12;;;;;;;6.47;3.88;;;;;;;1.79;42.27;99719.13;5087832;28;20040;-69
2023/04/04 04:27:39;;;;;;;6.68;4.45;;;;;;;1.77;42.11;99720.91;5087756;28;20062;-68
2023/04/04 04:30:08;;;;;;;5.07;3.20;;;;;;;1.76;42.09;99716.56;5087754;28;20312;-69
2023/04/04 04:32:34;;;;;;;3.90;3.00;;;;;;;1.76;42.18;99727.03;5087926;28;20044;-69
2023/04/04 04:35:03;;;;;;;3.97;3.58;;;;;;;1.76;42.18;99720.94;5087707;28;20058;-68
2023/04/04 04:37:29;;;;;;;7.15;4.65;;;;;;;1.74;42.04;99722.69;5087565;28;20036;-69
2023/04/04 04:39:56;;;;;;;5.63;4.00;;;;;;;1.70;42.02;99726.25;5087487;28;20037;-69
2023/04/04 04:42:23;;;;;;;5.45;3.78;;;;;;;1.41;42.00;99688.28;5087362;28;20197;-69
2023/04/04 04:44:51;;;;;;;5.72;3.25;;;;;;;1.45;42.13;99694.31;5087483;28;20094;-69
2023/04/04 04:47:17;;;;;;;7.78;4.18;;;;;;;1.42;42.33;99691.75;5086538;28;20177;-69
2023/04/04 04:49:46;;;;;;;5.38;4.43;;;;;;;1.62;42.33;99736.78;5087343;28;20054;-69
2023/04/04 04:52:15;;;;;;;5.43;3.55;;;;;;;1.46;42.26;99738.69;5086605;28;20036;-69
2023/04/04 04:54:42;;;;;;;4.78;3.35;;;;;;;1.58;42.34;99737.69;5087282;28;20201;-69
2023/04/04 04:57:09;;;;;;;6.22;3.47;;;;;;;1.60;42.27;99746.41;5087239;28;20049;-69
2023/04/04 04:59:36;;;;;;;5.63;3.63;;;;;;;1.62;42.30;99749.84;5087528;28;20040;-68
2023/04/04 05:02:03;;;;;;;6.85;4.13;;;;;;;1.58;42.36;99746.38;5086244;28;20044;-69
2023/04/04 05:04:30;;;;;;;6.00;4.07;;;;;;;1.60;42.27;99746.41;5086920;28;20048;-69
2023/04/04 05:06:57;;;;;;;4.25;3.13;;;;;;;1.57;42.18;99744.66;5087423;28;20296;-69
2023/04/04 05:09:25;;;;;;;6.18;3.70;;;;;;;1.56;42.43;99745.53;5086196;28;20316;-69
2023/04/04 05:11:51;;;;;;;6.50;3.42;;;;;;;1.54;42.36;99756.91;5086927;28;20059;-69
2023/04/04 05:14:19;;;;;;;4.53;3.47;;;;;;;1.56;42.17;99757.75;5086926;28;20044;-69
2023/04/04 05:16:46;;;;;;;5.50;2.95;;;;;;;1.58;42.19;99751.59;5087308;28;20050;-69
2023/04/04 05:19:13;;;;;;;4.60;3.08;;;;;;;1.58;42.05;99761.19;5086610;28;20036;-68
2023/04/04 05:21:40;;;;;;;5.05;3.17;;;;;;;1.56;41.89;99760.34;5086614;28;20036;-69
2023/04/04 05:24:08;;;;;;;4.90;3.20;;;;;;;1.58;42.04;99771.66;5087008;28;20044;-69
2023/04/04 05:26:36;;;;;;;3.67;2.70;;;;;;;1.55;41.78;99756.88;5086919;28;20063;-69
2023/04/04 05:29:02;;;;;;;4.47;3.10;;;;;;;1.54;41.75;99762.97;5086757;28;20044;-69
2023/04/04 05:31:29;;;;;;;3.90;2.70;;;;;;;1.53;41.77;99763.00;5085716;28;20174;-69
2023/04/04 05:33:56;;;;;;;4.10;2.75;;;;;;;1.54;41.53;99767.34;5085599;28;20056;-69
2023/04/04 05:36:23;;;;;;;4.07;2.88;;;;;;;1.33;41.71;99728.41;5086491;28;20071;-69
2023/04/04 05:38:50;;;;;;;4.72;3.28;;;;;;;1.55;41.67;99769.06;5086316;28;20044;-69
2023/04/04 05:41:16;;;;;;;4.45;3.40;;;;;;;1.60;41.73;99769.91;5086192;28;20220;-69
2023/04/04 05:43:44;;;;;;;5.57;3.42;;;;;;;1.62;41.75;99768.16;5086192;28;20033;-69
2023/04/04 05:46:11;;;;;;;3.88;2.40;;;;;;;1.47;41.59;99742.19;5086071;28;20081;-69
2023/04/04 05:48:38;;;;;;;3.97;2.78;;;;;;;1.66;41.52;99782.91;5085064;28;20102;-69
2023/04/04 05:51:04;;;;;;;5.75;3.17;;;;;;;1.69;41.68;99780.25;5086179;28;20083;-69
2023/04/04 05:53:31;;;;;;;5.78;3.28;;;;;;;1.74;41.67;99780.19;5086488;28;20050;-68
2023/04/04 05:55:59;;;;;;;4.32;3.15;;;;;;;1.76;41.44;99775.81;5086266;28;20201;-69
2023/04/04 05:58:26;;;;;;;4.03;3.08;;;;;;;1.82;41.25;99787.06;5086437;28;20075;-69
2023/04/04 06:00:55;;;;;;;4.55;3.30;;;;;;;1.88;41.45;99789.59;5085132;28;20321;-69
2023/04/04 06:03:22;;;;;;;3.92;2.88;;;;;;;1.99;41.14;99796.41;5085882;28;20040;-69
2023/04/04 06:05:51;;;;;;;4.22;3.15;;;;;;;2.07;41.28;99791.94;5084725;28;20059;-69
2023/04/04 06:08:18;;;;;;;5.95;3.20;;;;;;;2.16;41.19;99800.53;5085967;28;20044;-69
2023/04/04 06:10:45;;;;;;;4.50;2.92;;;;;;;2.25;41.19;99781.22;5085783;28;20284;-68
2023/04/04 06:13:12;;;;;;;4.47;3.63;;;;;;;2.37;40.88;99799.34;5084797;28;20054;-68
2023/04/04 06:15:38;;;;;;;3.97;2.83;;;;;;;2.52;40.59;99799.13;5085041;28;20032;-68
2023/04/04 06:18:07;;;;;;;5.30;3.42;;;;;;;2.76;40.30;99797.88;5086150;28;20050;-69
2023/04/04 06:20:33;;;;;;;4.45;3.15;;;;;;;3.08;39.83;99802.56;5085791;28;20052;-69
2023/04/04 06:23:03;;;;;;;4.63;3.45;;;;;;;3.36;39.21;99791.56;5084670;28;20063;-68
2023/04/04 06:25:30;;;;;;;4.65;3.17;;;;;;;3.74;38.57;99794.28;5084626;28;20082;-69
2023/04/04 06:27:58;;;;;;;4.40;3.50;;;;;;;3.79;38.08;99749.63;5085840;28;20079;-69
2023/04/04 06:30:25;;;;;;;6.35;4.05;;;;;;;4.31;37.89;99783.47;5085671;28;20172;-69
2023/04/04 06:32:51;;;;;;;5.88;3.45;;;;;;;4.60;37.49;99777.53;5084772;28;20044;-69
2023/04/04 06:35:19;;;;;;;6.32;3.35;;;;;;;4.89;36.78;99782.09;5085402;28;20056;-69
2023/04/04 06:37:46;;;;;;;4.97;3.63;;;;;;;5.16;36.80;99779.66;5085206;28;20041;-69
2023/04/04 06:40:13;;;;;;;4.43;3.00;;;;;;;5.36;36.40;99779.97;5085681;28;20056;-69
2023/04/04 06:42:42;;;;;;;4.60;3.13;;;;;;;5.62;36.33;99774.88;5084926;28;20086;-69
2023/04/04 06:45:09;;;;;;;3.88;2.95;;;;;;;5.76;35.86;99770.06;5085998;28;20037;-69
2023/04/04 06:47:36;;;;;;;4.63;2.60;;;;;;;5.93;35.89;99772.22;5084250;28;20090;-69
2023/04/04 06:50:03;;;;;;;4.20;2.83;;;;;;;6.05;35.83;99769.22;5084224;28;20032;-69
2023/04/04 06:52:32;;;;;;;4.03;3.05;;;;;;;6.19;35.49;99771.41;5085315;28;20036;-69
2023/04/04 06:54:58;;;;;;;5.55;3.20;;;;;;;6.34;35.46;99768.31;5084217;28;20036;-69
2023/04/04 06:57:25;;;;;;;3.78;2.65;;;;;;;6.52;35.54;99769.50;5084232;28;20308;-69
2023/04/04 06:59:52;;;;;;;5.38;3.08;;;;;;;6.49;35.57;99771.38;5084793;28;20037;-69
2023/04/04 07:02:20;;;;;;;4.68;3.00;;;;;;;6.55;35.52;99779.06;5085053;28;20048;-69
2023/04/04 07:04:46;;;;;;;5.35;4.00;;;;;;;6.59;35.50;99770.16;5083849;28;20329;-69
2023/04/04 07:07:13;;;;;;;5.65;3.08;;;;;;;6.67;35.45;99771.63;5085107;28;20052;-70
2023/04/04 07:09:42;;;;;;;3.85;2.97;;;;;;;6.87;35.09;99764.88;5085048;28;20090;-69
2023/04/04 07:12:09;;;;;;;5.82;2.75;;;;;;;7.07;34.91;99765.94;5085538;28;20055;-69
2023/04/04 07:14:35;;;;;;;4.40;3.00;;;;;;;7.31;34.72;99760.72;5084624;28;20040;-70
2023/04/04 07:17:02;;;;;;;4.13;3.17;;;;;;;7.48;34.27;99757.50;5085165;28;20063;-70
2023/04/04 07:19:29;;;;;;;4.43;3.20;;;;;;;7.63;34.32;99752.53;5084663;28;20052;-69
2023/04/04 07:21:56;;;;;;;4.20;2.78;;;;;;;7.80;34.15;99751.91;5085178;28;20291;-70
2023/04/04 07:24:23;;;;;;;4.88;2.90;;;;;;;8.03;34.03;99746.63;5085353;28;20292;-70
2023/04/04 07:26:51;;;;;;;5.13;2.78;;;;;;;8.27;33.39;99746.56;5084696;28;20098;-70
2023/04/04 07:29:18;;;;;;;4.47;2.90;;;;;;;8.43;33.40;99746.81;5084944;28;20056;-70
2023/04/04 07:31:44;;;;;;;5.38;3.47;;;;;;;8.56;33.34;99735.69;5084556;28;20036;-69
2023/04/04 07:34:11;;;;;;;5.90;3.47;;;;;;;8.68;33.13;99743.13;5084846;28;20310;-70
2023/04/04 07:36:38;;;;;;;5.53;3.00;;;;;;;8.71;32.83;99742.13;5084694;28;20037;-70
2023/04/04 07:39:05;;;;;;;10.98;3.65;;;;;;;8.78;33.06;99726.88;5084572;28;20207;-70
2023/04/04 07:41:32;;;;;;;3.92;3.00;;;;;;;8.79;32.91;99736.53;5084459;28;20067;-70
2023/04/04 07:44:00;;;;;;;4.43;2.53;;;;;;;8.94;32.36;99735.88;5087734;28;20055;-70
2023/04/04 07:46:27;;;;;;;3.83;2.55;;;;;;;9.02;32.63;99749.63;5088529;28;20048;-70
2023/04/04 07:48:54;;;;;;;4.20;2.88;;;;;;;9.02;32.69;99747.00;5088288;28;20124;-70
2023/04/04 07:51:28;;;;;;;4.47;2.72;;;;;;;8.79;32.66;99718.03;5088516;28;20045;-70
2023/04/04 07:53:55;;;;;;;7.13;3.10;;;;;;;8.98;32.75;99743.63;5088233;28;20075;-70
2023/04/04 07:56:22;;;;;;;4.50;3.45;;;;;;;9.06;32.67;99755.66;5088785;28;20045;-70
2023/04/04 07:58:48;;;;;;;5.85;3.53;;;;;;;9.16;32.61;99743.75;5088137;28;20040;-71
2023/04/04 08:01:17;;;;;;;3.67;2.78;;;;;;;9.29;32.43;99750.25;5088549;28;20040;-70
2023/04/04 08:03:43;;;;;;;5.25;3.20;;;;;;;9.40;32.36;99758.63;5087903;28;20048;-70
2023/04/04 08:06:10;;;;;;;4.40;2.60;;;;;;;9.47;32.05;99740.69;5087833;28;20051;-70
2023/04/04 08:08:37;;;;;;;5.35;3.03;;;;;;;9.45;32.13;99737.25;5087093;28;20123;-70
2023/04/04 08:11:04;;;;;;;4.00;2.63;;;;;;;9.55;32.19;99744.72;5086611;28;20040;-70
2023/04/04 08:13:31;;;;;;;4.80;2.78;;;;;;;9.67;31.69;99743.31;5087226;28;20300;-70
2023/04/04 08:15:58;;;;;;;4.70;3.25;;;;;;;9.55;31.59;99717.41;5088451;28;20048;-70
2023/04/04 08:18:27;;;;;;;4.82;2.90;;;;;;;9.62;31.54;99740.00;5088305;28;20051;-70
2023/04/04 08:20:54;;;;;;;4.00;2.60;;;;;;;9.81;31.48;99740.88;5086905;28;20064;-70
2023/04/04 08:23:20;;;;;;;3.83;2.78;;;;;;;10.03;31.30;99745.19;5087617;28;20192;-70
2023/04/04 08:25:47;;;;;;;4.22;2.92;;;;;;;10.13;30.99;99743.81;5087722;28;20057;-70
2023/04/04 08:28:14;;;;;;;4.53;2.83;;;;;;;10.14;31.22;99743.75;5087670;28;20048;-70
2023/04/04 08:30:41;;;;;;;4.07;3.22;;;;;;;10.00;31.42;99743.53;5087841;28;20101;-70
2023/04/04 08:33:08;;;;;;;3.90;2.85;;;;;;;9.81;31.37;99740.03;5086920;28;20040;-69
2023/04/04 08:35:37;;;;;;;4.07;3.08;;;;;;;9.69;31.43;99725.56;5088043;28;20048;-70
2023/04/04 08:38:05;;;;;;;6.65;2.40;;;;;;;9.77;31.26;99728.72;5087420;28;20186;-70
2023/04/04 08:40:32;;;;;;;3.78;2.60;;;;;;;9.80;31.20;99720.63;5087634;28;20052;-70
2023/04/04 08:42:59;;;;;;;7.25;3.10;;;;;;;9.94;31.11;99720.00;5047645;28;20224;-70
2023/04/04 08:45:30;;;;;;;4.93;3.38;;;;;;;10.01;30.58;99723.22;5047405;28;20059;-70
2023/04/04 08:48:00;;;;;;;5.40;3.22;;;;;;;9.84;30.68;99729.31;5047869;28;20049;-70
2023/04/04 08:50:29;;;;;;;3.90;2.47;;;;;;;9.66;31.03;99728.34;5046182;28;20042;-70
2023/04/04 08:53:00;;;;;;;16.35;3.08;;;;;;;9.18;30.89;99674.00;5047741;28;20170;-70
2023/04/04 08:55:27;;;;;;;5.20;3.00;;;;;;;9.45;31.18;99731.97;5046066;28;20293;-70
2023/04/04 08:57:54;;;;;;;6.35;3.05;;;;;;;9.46;31.26;99723.09;5029752;28;20089;-71
2023/04/04 09:00:21;;;;;;;5.82;3.10;;;;;;;9.50;30.76;99722.03;5047012;28;20045;-70
2023/04/04 09:02:56;;;;;;;4.10;3.00;;;;;;;9.37;30.04;99723.47;5046918;28;20045;-70
2023/04/04 09:05:24;;;;;;;3.97;2.90;;;;;;;9.25;31.17;99728.38;5045945;28;20057;-69
2023/04/04 09:07:51;;;;;;;4.22;3.25;;;;;;;9.29;31.09;99708.81;5047324;28;20052;-69
2023/04/04 09:10:19;;;;;;;4.25;2.75;;;;;;;9.52;30.74;99704.31;5046630;28;20037;-70
2023/04/04 09:12:47;;;;;;;5.00;3.10;;;;;;;9.74;30.77;99704.19;5046958;28;20175;-71
2023/04/04 09:15:16;;;;;;;4.22;2.70;;;;;;;9.71;30.30;99661.97;5046764;28;20105;-70
2023/04/04 09:17:42;;;;;;;4.20;2.88;;;;;;;9.86;30.15;99693.03;5046506;28;20045;-71
2023/04/04 09:20:35;;;;;;;4.95;2.92;;;;;;;9.97;28.10;99676.63;5046664;28;20189;-71
2023/04/04 09:23:05;;;;;;;6.82;2.80;;;;;;;10.00;29.66;99697.66;5046639;28;20276;-70
2023/04/04 09:25:33;;;;;;;4.80;3.00;;;;;;;9.95;29.76;99697.88;5046802;28;20037;-70
2023/04/04 09:28:01;;;;;;;9.50;4.38;;;;;;;9.81;30.06;99695.88;5046700;28;20108;-70
2023/04/04 09:30:28;;;;;;;4.82;3.33;;;;;;;9.66;30.42;99686.00;5045897;28;20049;-71
2023/04/04 09:32:56;;;;;;;5.28;3.15;;;;;;;9.60;30.27;99679.22;5045517;28;20167;-71
2023/04/04 09:35:23;;;;;;;5.40;3.45;;;;;;;9.50;30.55;99663.81;5045724;28;20092;-70
2023/04/04 09:37:51;;;;;;;7.57;3.35;;;;;;;9.83;30.33;99687.88;5028991;28;20384;-71
2023/04/04 09:40:18;;;;;;;5.50;3.55;;;;;;;9.98;30.14;99691.59;5046715;28;20282;-71
2023/04/04 09:42:47;;;;;;;4.30;3.20;;;;;;;10.08;29.87;99684.94;5082806;28;20123;-72
2023/04/04 09:45:15;;;;;;;6.47;3.75;;;;;;;10.05;29.90;99691.22;5085704;28;20048;-71
2023/04/04 09:47:42;;;;;;;4.97;3.53;;;;;;;10.06;29.89;99687.66;5086189;28;20040;-72
2023/04/04 09:50:10;;;;;;;4.05;3.33;;;;;;;10.20;29.69;99783.19;5086195;28;20040;-71
2023/04/04 09:52:36;;;;;;;4.00;3.00;;;;;;;10.23;29.54;99695.63;5086262;28;20103;-71
2023/04/04 09:55:05;;;;;;;5.15;3.50;;;;;;;9.97;29.52;99666.03;5085462;28;20312;-71
2023/04/04 09:57:34;;;;;;;4.25;3.33;;;;;;;10.07;29.67;99677.91;5086087;28;20228;-71
2023/04/04 10:00:05;;;;;;;5.75;3.30;;;;;;;10.15;29.11;99679.25;5068839;28;20304;-70
2023/04/04 10:02:34;;;;;;;5.47;3.65;;;;;;;9.51;29.25;99549.13;5085117;28;20054;-71
2023/04/04 10:05:01;;;;;;;5.32;2.92;;;;;;;10.37;29.25;99672.91;5085735;28;20032;-71
2023/04/04 10:07:29;;;;;;;5.18;3.70;;;;;;;10.53;29.11;99671.22;5086104;28;20079;-69
2023/04/04 10:09:57;;;;;;;4.25;2.90;;;;;;;10.71;29.39;99664.13;5086056;28;20044;-68
2023/04/04 10:12:25;;;;;;;4.47;3.30;;;;;;;10.66;28.82;99629.91;5086309;28;20067;-69
2023/04/04 10:14:56;;;;;;;4.30;3.20;;;;;;;10.72;27.82;99626.94;5086416;28;20044;-69
2023/04/04 10:17:30;;;;;;;5.03;3.28;;;;;;;10.80;28.43;99669.84;5086161;28;20351;-69
2023/04/04 10:19:59;;;;;;;5.35;3.22;;;;;;;10.63;28.52;99668.97;5086079;28;20289;-70
2023/04/04 10:22:27;;;;;;;5.00;3.83;;;;;;;10.58;28.66;99672.72;5085778;28;20054;-68
2023/04/04 10:24:54;;;;;;;4.30;2.92;;;;;;;10.63;28.72;99667.19;5085487;28;20048;-68
2023/04/04 10:27:21;;;;;;;4.68;3.03;;;;;;;10.54;28.66;99631.38;5085361;28;20076;-68
2023/04/04 10:29:48;;;;;;;5.75;3.17;;;;;;;10.81;29.12;99660.97;5085881;28;20040;-69
2023/04/04 10:32:23;;;;;;;4.65;3.22;;;;;;;10.95;28.47;99646.13;5085668;28;20054;-68
2023/04/04 10:35:02;;;;;;;;;;;;;;;10.93;26.48;99640.91;5085289;28;20051;-69
2023/04/04 10:37:35;;;;;;;4.85;3.08;;;;;;;10.73;28.25;99572.13;5085616;28;19987;-70
2023/04/04 10:40:07;;;;;;;6.40;3.47;;;;;;;11.21;27.89;99651.78;5085641;28;20107;-69
2023/04/04 10:42:39;;;;;;;7.70;4.10;;;;;;;10.91;27.62;99629.53;5085334;28;20060;-69
2023/04/04 10:45:09;;;;;;;5.55;3.35;;;;;;;10.62;28.76;99601.84;5085576;28;20115;-70
2023/04/04 10:47:36;;;;;;;5.85;4.32;;;;;;;10.86;28.71;99663.38;5085616;28;20041;-69
2023/04/04 10:50:09;;;;;;;6.93;4.78;;;;;;;10.33;28.43;99568.03;5085420;28;20032;-70
2023/04/04 10:52:37;;;;;;;5.07;3.80;;;;;;;10.70;28.91;99615.56;5085131;28;20056;-70
2023/04/04 10:55:06;;;;;;;6.40;3.90;;;;;;;10.84;28.84;99601.63;5085941;28;20046;-69
2023/04/04 10:57:34;;;;;;;4.47;3.53;;;;;;;11.07;28.54;99621.63;5085562;28;20193;-70
2023/04/04 11:00:03;;;;;;;6.00;3.25;;;;;;;11.20;28.48;99628.84;5084546;28;20044;-69
2023/04/04 11:02:54;;;;;;;4.85;3.30;;;;;;;11.24;27.02;99633.06;5085421;28;20037;-70
2023/04/04 11:05:25;;;;;;;4.45;3.30;;;;;;;11.18;27.96;99630.72;5084307;28;20327;-71
2023/04/04 11:07:56;;;;;;;5.18;3.40;;;;;;;10.96;28.40;99597.47;5085126;28;20095;-72
2023/04/04 11:10:24;;;;;;;4.70;3.60;;;;;;;11.25;28.65;99618.00;5085325;28;20060;-71
2023/04/04 11:12:57;;;;;;;5.20;3.33;;;;;;;11.35;27.64;99619.22;5084567;28;20060;-71
2023/04/04 11:15:26;;;;;;;6.43;3.55;;;;;;;11.42;28.20;99609.97;5085103;28;20040;-71
2023/04/04 11:17:58;;;;;;;5.57;3.53;;;;;;;11.48;27.35;99608.78;5087015;28;20044;-71
2023/04/04 11:20:33;;;;;;;6.22;3.30;;;;;;;11.28;27.12;99572.72;5088421;28;20053;-71
2023/04/04 11:23:04;;;;;;;6.40;3.83;;;;;;;11.43;27.47;99603.72;5089112;28;20047;-71
2023/04/04 11:25:33;;;;;;;5.35;3.70;;;;;;;11.32;28.12;99607.91;5089619;28;20044;-70
2023/04/04 11:28:08;;;;;;;5.03;3.28;;;;;;;11.24;27.13;99595.91;5089228;28;20044;-72
2023/04/04 11:30:43;;;;;;;4.55;3.22;;;;;;;11.12;26.87;99562.09;5088982;28;20028;-73
2023/04/04 11:33:13;;;;;;;5.47;3.40;;;;;;;11.31;27.90;99579.66;5089268;28;20040;-72
2023/04/04 11:35:47;;;;;;;4.07;3.25;;;;;;;11.31;26.66;99592.94;5087781;28;20052;-72
2023/04/04 11:38:15;;;;;;;4.88;3.50;;;;;;;11.10;27.82;99550.72;5088059;28;20045;-72
2023/04/04 11:40:52;;;;;;;5.82;3.60;;;;;;;11.26;27.92;99564.00;5087893;28;20127;-72
2023/04/04 11:43:20;;;;;;;5.45;3.40;;;;;;;11.32;27.80;99560.16;5088779;28;20120;-72
2023/04/04 11:45:47;;;;;;;6.03;3.45;;;;;;;11.34;27.53;99558.25;5088679;28;20045;-72